createdAt,value
2018-08-10T00:01:11.238Z,21.12
2018-08-10T00:03:40.704Z,21.08
2018-08-10T00:06:09.883Z,21.08
2018-08-10T00:08:39.520Z,21.00
2018-08-10T00:11:08.948Z,21.07
2018-08-10T00:13:38.495Z,21.08
2018-08-10T00:16:08.066Z,21.04
2018-08-10T00:18:37.444Z,20.86
2018-08-10T00:21:06.878Z,20.75
2018-08-10T00:23:36.996Z,20.64
2018-08-10T00:26:06.713Z,20.60
2018-08-10T00:28:36.107Z,20.58
2018-08-10T00:31:05.784Z,20.67
2018-08-10T00:33:35.284Z,20.74
2018-08-10T00:36:04.748Z,20.65
2018-08-10T00:38:34.582Z,20.72
2018-08-10T00:41:03.959Z,20.71
2018-08-10T00:43:33.502Z,20.72
2018-08-10T00:46:03.252Z,20.68
2018-08-10T00:48:32.661Z,20.69
2018-08-10T00:51:02.172Z,20.63
2018-08-10T00:53:31.867Z,20.57
2018-08-10T00:56:01.206Z,20.57
2018-08-10T00:58:30.459Z,20.54
2018-08-10T01:01:00.537Z,20.55
2018-08-10T01:03:29.994Z,20.53
2018-08-10T01:05:59.410Z,20.54
2018-08-10T01:08:28.856Z,20.57
2018-08-10T01:10:58.202Z,20.58
2018-08-10T01:13:27.745Z,20.61
2018-08-10T01:15:57.528Z,20.60
2018-08-10T01:18:26.920Z,20.54
2018-08-10T01:20:56.359Z,20.55
2018-08-10T01:23:26.205Z,20.50
2018-08-10T01:25:55.780Z,20.54
2018-08-10T01:28:25.262Z,20.53
2018-08-10T01:30:55.290Z,20.52
2018-08-10T01:33:24.603Z,20.54
2018-08-10T01:35:54.084Z,20.51
2018-08-10T01:38:24.386Z,20.51
2018-08-10T01:40:53.795Z,20.53
2018-08-10T01:43:23.068Z,20.49
2018-08-10T01:45:52.743Z,20.50
2018-08-10T01:48:22.022Z,20.46
2018-08-10T01:50:52.296Z,20.49
2018-08-10T01:53:21.739Z,20.46
2018-08-10T01:55:51.050Z,20.51
2018-08-10T01:58:20.623Z,20.50
2018-08-10T02:00:50.513Z,19.45
2018-08-10T02:03:19.998Z,20.49
2018-08-10T02:05:49.323Z,20.55
2018-08-10T02:08:19.001Z,20.47
2018-08-10T02:10:48.478Z,20.42
2018-08-10T02:13:17.779Z,20.41
2018-08-10T02:15:47.414Z,20.44
2018-08-10T02:18:16.767Z,20.38
2018-08-10T02:20:45.970Z,20.44
2018-08-10T02:23:15.601Z,20.48
2018-08-10T02:25:45.101Z,20.47
2018-08-10T02:28:14.477Z,20.46
2018-08-10T02:30:44.247Z,20.43
2018-08-10T02:33:14.280Z,20.39
2018-08-10T02:35:43.642Z,20.41
2018-08-10T02:38:13.138Z,20.40
2018-08-10T02:40:42.120Z,20.38
2018-08-10T02:43:11.401Z,20.34
2018-08-10T02:45:41.041Z,20.33
2018-08-10T02:48:10.461Z,20.32
2018-08-10T02:50:40.438Z,20.37
2018-08-10T02:53:10.232Z,20.38
2018-08-10T02:55:39.745Z,20.38
2018-08-10T02:58:09.103Z,20.37
2018-08-10T03:00:38.579Z,20.37
2018-08-10T03:03:10.350Z,20.37
2018-08-10T03:08:32.798Z,20.34
2018-08-10T03:11:02.245Z,20.37
2018-08-10T03:13:31.709Z,20.34
2018-08-10T03:16:01.283Z,20.35
2018-08-10T03:18:30.865Z,20.34
2018-08-10T03:21:00.378Z,20.34
2018-08-10T03:23:29.993Z,20.35
2018-08-10T03:25:59.330Z,20.37
2018-08-10T03:28:28.888Z,20.38
2018-08-10T03:30:58.578Z,20.41
2018-08-10T03:33:28.485Z,20.46
2018-08-10T03:35:58.147Z,20.54
2018-08-10T03:38:27.885Z,20.57
2018-08-10T03:40:57.397Z,20.60
2018-08-10T03:43:26.884Z,20.61
2018-08-10T03:45:56.648Z,20.61
2018-08-10T03:48:26.411Z,20.65
2018-08-10T03:50:55.968Z,20.71
2018-08-10T03:53:25.876Z,20.65
2018-08-10T03:55:55.372Z,20.72
2018-08-10T03:58:25.203Z,20.77
2018-08-10T04:00:55.252Z,20.83
2018-08-10T04:03:25.816Z,20.82
2018-08-10T04:05:55.478Z,20.88
2018-08-10T04:08:25.728Z,20.89
2018-08-10T04:10:55.565Z,20.93
2018-08-10T04:13:25.875Z,19.93
2018-08-10T04:15:55.647Z,21.02
2018-08-10T04:18:25.303Z,21.04
2018-08-10T04:20:55.327Z,21.03
2018-08-10T04:23:25.321Z,21.05
2018-08-10T04:25:54.668Z,21.11
2018-08-10T04:28:24.233Z,21.13
2018-08-10T04:30:53.885Z,21.17
2018-08-10T04:33:23.225Z,21.19
2018-08-10T04:35:52.659Z,21.23
2018-08-10T04:38:22.419Z,21.28
2018-08-10T04:40:51.891Z,21.28
2018-08-10T04:43:21.319Z,21.29
2018-08-10T04:45:51.091Z,21.31
2018-08-10T04:48:20.703Z,21.34
2018-08-10T04:50:50.460Z,21.36
2018-08-10T04:53:20.223Z,21.37
2018-08-10T04:55:49.956Z,21.33
2018-08-10T04:58:19.443Z,21.33
2018-08-10T05:00:49.660Z,21.37
2018-08-10T05:03:19.270Z,21.37
2018-08-10T05:05:48.492Z,21.48
2018-08-10T05:08:18.233Z,21.50
2018-08-10T05:10:47.912Z,21.52
2018-08-10T05:13:17.683Z,21.48
2018-08-10T05:15:47.502Z,21.45
2018-08-10T05:18:16.907Z,21.42
2018-08-10T05:20:46.257Z,21.40
2018-08-10T05:23:15.808Z,21.44
2018-08-10T05:25:45.102Z,21.49
2018-08-10T05:28:14.520Z,21.54
2018-08-10T05:30:44.018Z,21.62
2018-08-10T05:33:13.620Z,21.69
2018-08-10T05:35:43.168Z,21.77
2018-08-10T05:38:12.962Z,20.58
2018-08-10T05:40:42.466Z,21.68
2018-08-10T05:43:12.131Z,21.67
2018-08-10T05:45:41.665Z,21.60
2018-08-10T05:48:11.052Z,21.55
2018-08-10T05:50:40.453Z,21.55
2018-08-10T05:53:10.138Z,21.56
2018-08-10T05:55:39.564Z,21.51
2018-08-10T05:58:08.998Z,21.49
2018-08-10T06:00:38.856Z,21.00
2018-08-10T06:03:08.164Z,21.48
2018-08-10T06:05:37.654Z,21.48
2018-08-10T06:08:07.433Z,21.50
2018-08-10T06:10:36.889Z,21.50
2018-08-10T06:13:06.933Z,21.29
2018-08-10T06:15:36.812Z,21.45
2018-08-10T06:18:07.417Z,21.42
2018-08-10T06:20:37.061Z,21.44
2018-08-10T06:23:06.731Z,21.46
2018-08-10T06:25:36.743Z,21.30
2018-08-10T06:28:06.910Z,21.52
2018-08-10T06:30:37.275Z,21.55
2018-08-10T06:33:06.805Z,21.52
2018-08-10T06:35:36.544Z,21.54
2018-08-10T06:38:07.051Z,21.56
2018-08-10T06:40:36.494Z,21.54
2018-08-10T06:43:06.056Z,21.58
2018-08-10T06:45:35.848Z,21.61
2018-08-10T06:48:05.318Z,21.64
2018-08-10T06:50:34.659Z,21.72
2018-08-10T06:53:05.014Z,21.68
2018-08-10T06:55:34.950Z,21.62
2018-08-10T06:58:08.373Z,21.66
2018-08-10T07:00:38.014Z,21.67
2018-08-10T07:03:07.712Z,21.74
2018-08-10T07:05:37.622Z,21.73
2018-08-10T07:08:07.340Z,21.75
2018-08-10T07:10:37.353Z,21.69
2018-08-10T07:13:07.869Z,21.70
2018-08-10T07:15:37.567Z,21.66
2018-08-10T07:18:06.873Z,21.68
2018-08-10T07:20:36.978Z,21.75
2018-08-10T07:23:07.318Z,21.76
2018-08-10T07:25:37.287Z,21.78
2018-08-10T07:28:07.182Z,21.78
2018-08-10T07:30:36.868Z,21.77
2018-08-10T07:33:06.593Z,21.78
2018-08-10T07:35:36.604Z,21.81
2018-08-10T07:38:06.397Z,21.81
2018-08-10T07:40:35.896Z,21.76
2018-08-10T07:43:05.867Z,21.80
2018-08-10T07:45:35.782Z,21.76
2018-08-10T07:48:05.410Z,21.76
2018-08-10T07:50:35.149Z,21.62
2018-08-10T07:53:04.842Z,21.57
2018-08-10T07:55:35.628Z,21.36
2018-08-10T07:58:06.023Z,21.44
2018-08-10T08:00:35.680Z,21.50
2018-08-10T08:03:06.104Z,21.71
2018-08-10T08:05:35.672Z,21.80
2018-08-10T08:08:05.716Z,21.69
2018-08-10T08:10:35.732Z,21.70
2018-08-10T08:13:05.509Z,21.67
2018-08-10T08:15:35.201Z,21.68
2018-08-10T08:18:06.287Z,22.14
2018-08-10T08:20:36.913Z,22.00
2018-08-10T08:23:07.724Z,21.72
2018-08-10T08:25:37.399Z,21.55
2018-08-10T08:28:06.707Z,21.48
2018-08-10T08:30:36.414Z,21.37
2018-08-10T08:33:06.262Z,21.27
2018-08-10T08:35:35.817Z,21.22
2018-08-10T08:39:20.228Z,21.27
2018-08-10T08:41:51.531Z,20.86
2018-08-10T08:44:33.601Z,21.08
2018-08-10T08:47:04.935Z,21.06
2018-08-10T08:49:35.243Z,21.21
2018-08-10T08:52:05.135Z,21.03
2018-08-10T08:55:10.946Z,20.91
2018-08-10T08:57:40.923Z,20.91
2018-08-10T09:00:15.032Z,20.96
2018-08-10T09:02:45.584Z,20.95
2018-08-10T09:05:15.068Z,20.89
2018-08-10T09:07:44.947Z,20.93
2018-08-10T09:10:17.068Z,20.83
2018-08-10T09:12:46.585Z,20.93
2018-08-10T09:15:18.651Z,20.79
2018-08-10T09:17:48.461Z,20.65
2018-08-10T09:20:18.052Z,20.69
2018-08-10T09:22:47.436Z,20.84
2018-08-10T09:25:18.469Z,21.00
2018-08-10T09:27:47.891Z,20.88
2018-08-10T09:30:18.518Z,20.85
2018-08-10T09:32:48.374Z,20.87
2018-08-10T09:35:18.089Z,20.79
2018-08-10T09:37:47.730Z,20.88
2018-08-10T09:40:18.527Z,20.84
2018-08-10T09:42:48.547Z,21.01
2018-08-10T09:45:18.870Z,21.32
2018-08-10T09:47:49.575Z,21.14
2018-08-10T09:50:19.737Z,21.05
2018-08-10T09:53:00.728Z,21.09
2018-08-10T09:55:39.082Z,21.08
2018-08-10T09:58:13.831Z,20.96
2018-08-10T10:00:48.556Z,20.98
2018-08-10T10:03:19.636Z,21.02
2018-08-10T10:05:50.064Z,21.25
2018-08-10T10:08:20.079Z,21.41
2018-08-10T10:10:49.690Z,21.59
2018-08-10T10:13:20.392Z,21.44
2018-08-10T10:15:50.418Z,21.60
2018-08-10T10:18:20.220Z,20.65
2018-08-10T10:20:49.978Z,21.77
2018-08-10T10:23:20.172Z,22.05
2018-08-10T10:25:49.970Z,21.93
2018-08-10T10:28:19.339Z,21.87
2018-08-10T10:30:49.423Z,21.59
2018-08-10T10:33:19.490Z,21.37
2018-08-10T10:35:49.229Z,21.27
2018-08-10T10:38:18.959Z,21.26
2018-08-10T10:40:48.488Z,21.33
2018-08-10T10:43:18.312Z,21.26
2018-08-10T10:45:48.331Z,21.26
2018-08-10T10:48:18.005Z,21.25
2018-08-10T10:50:47.859Z,21.48
2018-08-10T10:53:17.995Z,21.40
2018-08-10T10:55:47.658Z,21.33
2018-08-10T10:58:17.109Z,21.35
2018-08-10T11:00:47.130Z,21.29
2018-08-10T11:03:16.591Z,21.25
2018-08-10T11:05:46.078Z,21.29
2018-08-10T11:08:15.903Z,21.24
2018-08-10T11:10:45.690Z,21.24
2018-08-10T11:13:15.095Z,21.34
2018-08-10T11:15:44.830Z,21.25
2018-08-10T11:18:14.723Z,21.37
2018-08-10T11:20:44.478Z,21.20
2018-08-10T11:23:14.452Z,21.13
2018-08-10T11:25:44.178Z,20.96
2018-08-10T11:28:13.743Z,20.96
2018-08-10T11:30:44.084Z,20.81
2018-08-10T11:33:13.824Z,20.90
2018-08-10T11:35:43.534Z,21.17
2018-08-10T11:38:13.373Z,21.10
2018-08-10T11:40:43.244Z,21.05
2018-08-10T11:43:12.610Z,20.85
2018-08-10T11:45:42.396Z,20.83
2018-08-10T11:48:12.184Z,20.20
2018-08-10T11:50:42.023Z,19.84
2018-08-10T11:53:12.829Z,19.92
2018-08-10T11:55:42.312Z,19.81
2018-08-10T11:58:14.724Z,19.92
2018-08-10T12:00:45.422Z,20.12
2018-08-10T12:03:15.269Z,20.18
2018-08-10T12:05:45.097Z,20.29
2018-08-10T12:08:14.747Z,20.40
2018-08-10T12:10:44.994Z,20.46
2018-08-10T12:13:14.429Z,20.53
2018-08-10T12:15:44.092Z,20.62
2018-08-10T12:18:13.976Z,20.64
2018-08-10T12:20:43.549Z,20.62
2018-08-10T12:23:13.355Z,20.29
2018-08-10T12:25:43.096Z,20.36
2018-08-10T12:28:12.724Z,20.38
2018-08-10T12:30:42.304Z,20.07
2018-08-10T12:33:12.204Z,20.03
2018-08-10T12:35:42.042Z,19.36
2018-08-10T12:38:12.550Z,20.22
2018-08-10T12:40:42.336Z,20.48
2018-08-10T12:43:11.794Z,20.68
2018-08-10T12:45:42.803Z,20.70
2018-08-10T12:48:12.714Z,20.71
2018-08-10T12:50:42.868Z,20.94
2018-08-10T12:53:12.546Z,20.81
2018-08-10T12:55:42.092Z,20.55
2018-08-10T12:58:11.542Z,20.37
2018-08-10T13:00:41.428Z,20.11
2018-08-10T13:03:10.975Z,20.17
2018-08-10T13:05:40.538Z,20.19
2018-08-10T13:08:10.386Z,20.00
2018-08-10T13:10:39.998Z,20.07
2018-08-10T13:13:09.604Z,20.15
2018-08-10T13:15:39.280Z,20.45
2018-08-10T13:18:08.865Z,20.44
2018-08-10T13:20:38.525Z,20.20
2018-08-10T13:23:08.379Z,20.03
2018-08-10T13:25:38.212Z,20.00
2018-08-10T13:28:07.863Z,20.06
2018-08-10T13:30:37.625Z,20.33
2018-08-10T13:33:07.120Z,20.52
2018-08-10T13:35:36.869Z,20.66
2018-08-10T13:38:06.685Z,20.41
2018-08-10T13:40:36.240Z,20.46
2018-08-10T13:43:05.744Z,20.68
2018-08-10T13:45:35.494Z,20.36
2018-08-10T13:48:08.994Z,20.34
2018-08-10T13:50:44.097Z,20.12
2018-08-10T13:53:14.135Z,20.42
2018-08-10T13:55:43.735Z,20.34
2018-08-10T13:58:13.279Z,20.37
2018-08-10T14:00:42.894Z,20.13
2018-08-10T14:03:12.230Z,20.17
2018-08-10T14:05:41.983Z,20.53
2018-08-10T14:08:11.481Z,20.80
2018-08-10T14:10:40.845Z,20.35
2018-08-10T14:13:10.824Z,20.39
2018-08-10T14:15:40.079Z,20.63
2018-08-10T14:18:09.782Z,20.71
2018-08-10T14:20:39.421Z,20.42
2018-08-10T14:23:09.162Z,20.55
2018-08-10T14:25:38.412Z,20.34
2018-08-10T14:28:07.954Z,19.95
2018-08-10T14:30:37.112Z,19.79
2018-08-10T14:33:06.573Z,19.78
2018-08-10T14:35:36.457Z,19.94
2018-08-10T14:38:06.628Z,19.68
2018-08-10T14:40:36.333Z,19.61
2018-08-10T14:43:05.991Z,19.64
2018-08-10T14:45:35.642Z,19.68
2018-08-10T17:34:52.641Z,19.79
2018-08-10T17:39:59.908Z,19.80
2018-08-10T17:42:29.255Z,19.74
2018-08-10T17:44:58.687Z,19.80
2018-08-10T17:47:29.210Z,19.79
2018-08-10T17:49:58.643Z,19.88
2018-08-10T17:52:28.273Z,19.88
2018-08-10T17:54:58.136Z,19.94
2018-08-10T17:57:27.461Z,19.92
2018-08-10T17:59:57.573Z,19.71
2018-08-10T18:02:27.389Z,19.73
2018-08-10T18:04:56.918Z,19.68
2018-08-10T18:08:01.295Z,19.69
2018-08-10T18:10:31.190Z,19.74
2018-08-10T18:13:06.521Z,19.71
2018-08-10T18:15:38.113Z,19.81
2018-08-10T18:18:07.925Z,19.79
2018-08-10T18:20:38.435Z,19.52
2018-08-10T18:23:08.697Z,19.34
2018-08-10T18:25:38.860Z,19.47
2018-08-10T18:28:08.258Z,19.40
2018-08-10T18:30:43.100Z,19.36
2018-08-10T18:33:12.796Z,19.34
2018-08-10T18:35:42.341Z,19.21
2018-08-10T18:38:11.869Z,19.16
2018-08-10T18:40:41.458Z,19.19
2018-08-10T18:43:11.084Z,19.28
2018-08-10T18:45:40.611Z,19.25
2018-08-10T18:50:46.541Z,19.19
2018-08-10T18:53:16.412Z,19.11
2018-08-10T18:55:45.961Z,19.13
2018-08-10T18:58:15.503Z,19.20
